Hlavní strana
METAR-TAF:

METAR-TAF

Letiště :

Kramfors, Švédsko

zeměpisná šířka: 63-03N, zeměpisná délka: 017-46E, výška: 10 m

Aktuální stav počasí

Zpráva byla vytvořena před 40 minutami, v 02:50 UTC
Severoseverozápadní vítr 3 kt, proměnlivý mezi západním a východoseverovýchodním
Teplota 7°C
Vlhkost vzduchu 66%
Tlak 1017 hPa
Viditelnost 10 km a více

METAR: ESNK 190250Z AUTO 33003KT 270V070 9999 SCT160/// 07/01 Q1017

Čas: 05:30 (03:30 UTC)

Předpověď počasí

Zpráva byla vytvořena před 10 hodinami a 0 minutami, v 17:30 UTC
Předpověď platná od 18 v 18 UTC do 18 v 20 UTC
Západní vítr 9 kt
Viditelnost 10 km a více
Žádná oblačnost pod 1500 m, nevyskytují se cumulonimby.

TAF: ESNK 181730Z 1818/1820 28009KT CAVOK

Stav a předpovědi počasí z více než 4 000 letišť (zprávy METAR a TAF).

Červené a žluté tečky na mapě představují dostupné meteorologické stanice.

Když kurzor umístíte na tečku, zobrazí se název stanice.

Pak kliknutím zobrazíte stav a předpověď počasí.

Chcete-li změnit mapu, kliknutím na zelené tlačítko se znaménkem +mapu přiblížíte, kliknutím na zelené tlačítko se znaménkem – mapu oddálíte a kliknutím na zelené šipky přejdete na sousední mapy.


METAR-TAF: